createdAt,value
2019-04-26T00:01:53.479Z,88.80
2019-04-26T00:04:22.681Z,88.80
2019-04-26T00:06:51.469Z,88.80
2019-04-26T00:09:30.773Z,88.60
2019-04-26T00:12:04.223Z,89.20
2019-04-26T00:14:43.200Z,89.30
2019-04-26T00:17:16.420Z,89.40
2019-04-26T00:19:46.409Z,89.40
2019-04-26T00:22:15.633Z,89.20
2019-04-26T00:25:07.437Z,89.20
2019-04-26T00:27:36.216Z,89.00
2019-04-26T00:30:06.245Z,89.50
2019-04-26T00:32:35.054Z,89.30
2019-04-26T00:35:04.315Z,89.40
2019-04-26T00:37:33.142Z,89.20
2019-04-26T00:40:01.829Z,89.10
2019-04-26T00:42:31.795Z,89.00
2019-04-26T00:45:00.860Z,89.30
2019-04-26T00:47:30.216Z,89.70
2019-04-26T00:50:00.129Z,89.60
2019-04-26T00:52:29.585Z,90.00
2019-04-26T00:54:59.688Z,89.70
2019-04-26T00:57:30.615Z,89.70
2019-04-26T00:59:59.617Z,89.80
2019-04-26T01:02:30.102Z,90.00
2019-04-26T01:04:58.924Z,90.00
2019-04-26T01:07:27.697Z,90.10
2019-04-26T01:09:56.505Z,90.20
2019-04-26T01:12:26.029Z,90.30
2019-04-26T01:14:54.974Z,90.30
2019-04-26T01:17:24.586Z,90.20
2019-04-26T01:19:55.105Z,90.40
2019-04-26T01:22:27.632Z,90.30
2019-04-26T01:24:57.631Z,90.50
2019-04-26T01:27:29.114Z,90.40
2019-04-26T01:30:00.913Z,90.40
2019-04-26T01:32:32.596Z,90.30
2019-04-26T01:35:01.485Z,90.20
2019-04-26T01:37:31.501Z,90.20
2019-04-26T01:40:05.214Z,90.20
2019-04-26T01:42:43.519Z,90.20
2019-04-26T01:45:15.553Z,90.40
2019-04-26T01:47:45.809Z,90.20
2019-04-26T01:50:14.999Z,90.30
2019-04-26T01:52:46.042Z,90.40
2019-04-26T01:55:15.923Z,90.40
2019-04-26T01:57:44.726Z,90.30
2019-04-26T02:00:32.965Z,90.30
2019-04-26T02:06:25.347Z,90.30
2019-04-26T02:08:48.789Z,90.30
2019-04-26T02:11:17.683Z,90.80
2019-04-26T02:13:46.933Z,90.40
2019-04-26T02:16:15.807Z,90.40
2019-04-26T02:18:45.073Z,90.80
2019-04-26T02:21:15.596Z,90.60
2019-04-26T02:24:01.513Z,90.50
2019-04-26T02:26:41.464Z,90.40
2019-04-26T02:29:18.952Z,90.50
2019-04-26T02:31:50.825Z,90.70
2019-04-26T02:34:19.677Z,90.60
2019-04-26T02:36:57.994Z,90.50
2019-04-26T02:39:27.418Z,90.40
2019-04-26T02:41:58.051Z,90.60
2019-04-26T02:44:32.982Z,90.50
2019-04-26T02:47:22.555Z,90.40
2019-04-26T02:49:55.136Z,90.40
2019-04-26T02:52:29.076Z,90.40
2019-04-26T02:55:02.954Z,90.40
2019-04-26T02:57:36.470Z,90.50
2019-04-26T03:00:08.203Z,90.60
2019-04-26T03:02:39.088Z,90.50
2019-04-26T03:05:09.033Z,90.70
2019-04-26T03:07:49.695Z,90.70
2019-04-26T03:10:20.274Z,90.60
2019-04-26T03:12:51.665Z,90.70
2019-04-26T03:15:42.578Z,91.20
2019-04-26T03:18:33.493Z,90.80
2019-04-26T03:21:08.007Z,91.00
2019-04-26T03:23:53.300Z,90.90
2019-04-26T03:26:37.443Z,90.90
2019-04-26T03:29:24.789Z,91.00
2019-04-26T03:32:16.689Z,91.00
2019-04-26T03:34:58.928Z,91.00
2019-04-26T03:37:42.672Z,91.10
2019-04-26T03:40:36.919Z,90.90
2019-04-26T03:43:20.685Z,90.80
2019-04-26T03:46:21.595Z,90.90
2019-04-26T03:49:05.538Z,90.80
2019-04-26T03:51:55.243Z,90.80
2019-04-26T03:54:27.002Z,90.90
2019-04-26T03:57:15.626Z,91.20
2019-04-26T03:59:49.050Z,91.30
2019-04-26T04:02:25.213Z,91.30
2019-04-26T04:04:58.612Z,91.10
2019-04-26T04:07:39.463Z,91.10
2019-04-26T04:10:05.097Z,91.20
2019-04-26T04:12:52.108Z,91.30
2019-04-26T04:15:27.352Z,91.20
2019-04-26T04:17:59.209Z,91.30
2019-04-26T04:20:53.601Z,91.20
2019-04-26T04:23:34.342Z,91.20
2019-04-26T04:26:06.052Z,91.20
2019-04-26T04:28:49.922Z,91.20
2019-04-26T04:31:50.804Z,91.20
2019-04-26T04:34:37.689Z,91.20
2019-04-26T04:37:09.260Z,91.10
2019-04-26T04:39:42.909Z,91.10
2019-04-26T04:42:28.120Z,91.00
2019-04-26T04:45:09.534Z,91.10
2019-04-26T04:47:54.091Z,91.20
2019-04-26T04:50:33.018Z,91.10
2019-04-26T04:53:16.511Z,91.10
2019-04-26T04:55:52.096Z,91.10
2019-04-26T04:58:26.821Z,91.10
2019-04-26T05:01:24.587Z,91.10
2019-04-26T05:03:59.419Z,91.00
2019-04-26T05:06:35.888Z,90.90
2019-04-26T05:09:10.308Z,90.80
2019-04-26T05:12:00.088Z,90.80
2019-04-26T05:14:48.468Z,90.90
2019-04-26T05:17:36.752Z,90.80
2019-04-26T05:20:28.199Z,90.60
2019-04-26T05:23:16.544Z,90.70
2019-04-26T05:25:55.593Z,90.60
2019-04-26T05:28:34.984Z,90.40
2019-04-26T05:31:23.355Z,90.30
2019-04-26T05:34:14.971Z,89.50
2019-04-26T05:37:05.475Z,89.10
2019-04-26T05:39:42.067Z,88.60
2019-04-26T05:42:31.623Z,88.90
2019-04-26T05:45:42.817Z,89.10
2019-04-26T05:48:25.494Z,88.50
2019-04-26T05:51:23.162Z,88.30
2019-04-26T05:54:30.956Z,88.20
2019-04-26T05:57:17.184Z,88.40
2019-04-26T06:00:20.598Z,88.10
2019-04-26T06:03:18.770Z,88.50
2019-04-26T06:06:05.236Z,89.10
2019-04-26T06:09:03.649Z,89.10
2019-04-26T06:11:41.246Z,89.20
2019-04-26T06:14:56.745Z,89.10
2019-04-26T06:17:41.883Z,89.30
2019-04-26T06:20:34.624Z,88.90
2019-04-26T06:23:24.514Z,88.80
2019-04-26T06:26:31.106Z,88.20
2019-04-26T06:29:03.318Z,87.70
2019-04-26T06:31:40.424Z,87.50
2019-04-26T06:34:24.090Z,87.40
2019-04-26T06:37:18.448Z,86.80
2019-04-26T06:40:17.549Z,87.30
2019-04-26T06:42:59.167Z,87.10
2019-04-26T06:45:48.843Z,87.30
2019-04-26T06:48:36.882Z,87.70
2019-04-26T06:51:36.187Z,88.10
2019-04-26T06:54:09.070Z,88.10
2019-04-26T06:57:08.844Z,87.80
2019-04-26T06:59:53.421Z,87.40
2019-04-26T07:02:27.853Z,87.30
2019-04-26T07:05:00.670Z,87.10
2019-04-26T07:07:47.843Z,87.70
2019-04-26T07:10:19.907Z,87.60
2019-04-26T07:13:02.242Z,86.50
2019-04-26T07:15:42.598Z,86.20
2019-04-26T07:18:16.889Z,87.00
2019-04-26T07:21:11.578Z,86.30
2019-04-26T07:27:42.985Z,85.80
2019-04-26T07:30:17.638Z,85.70
2019-04-26T07:33:09.454Z,84.90
2019-04-26T07:35:46.929Z,85.30
2019-04-26T07:38:18.663Z,85.20
2019-04-26T07:40:54.964Z,84.50
2019-04-26T07:43:31.493Z,84.20
2019-04-26T07:46:08.900Z,83.50
2019-04-26T07:49:00.024Z,83.40
2019-04-26T07:51:48.342Z,82.90
2019-04-26T07:54:42.832Z,82.10
2019-04-26T07:57:42.780Z,82.00
2019-04-26T08:00:24.571Z,81.90
2019-04-26T08:03:15.656Z,81.90
2019-04-26T08:05:56.351Z,80.30
2019-04-26T08:08:28.080Z,80.20
2019-04-26T08:11:18.099Z,80.70
2019-04-26T08:14:06.440Z,80.50
2019-04-26T08:16:41.574Z,79.50
2019-04-26T08:19:16.016Z,78.90
2019-04-26T08:21:49.091Z,79.00
2019-04-26T08:24:22.560Z,79.90
2019-04-26T08:27:18.708Z,78.60
2019-04-26T08:29:42.573Z,76.40
2019-04-26T08:32:16.095Z,76.80
2019-04-26T08:34:48.050Z,76.90
2019-04-26T08:37:21.636Z,76.90
2019-04-26T08:39:52.207Z,76.50
2019-04-26T08:42:25.041Z,75.80
2019-04-26T08:45:00.507Z,75.20
2019-04-26T08:47:41.661Z,74.90
2019-04-26T08:50:16.217Z,75.40
2019-04-26T08:52:49.202Z,75.20
2019-04-26T08:55:20.112Z,74.80
2019-04-26T08:57:51.252Z,73.70
2019-04-26T09:00:25.874Z,73.40
2019-04-26T09:03:10.921Z,73.30
2019-04-26T09:05:53.272Z,72.60
2019-04-26T09:08:25.440Z,71.50
2019-04-26T09:10:57.402Z,71.40
2019-04-26T09:13:29.266Z,71.00
2019-04-26T09:16:09.747Z,70.00
2019-04-26T09:18:43.585Z,70.20
2019-04-26T09:21:09.473Z,69.50
2019-04-26T09:23:56.471Z,67.80
2019-04-26T09:26:42.281Z,67.00
2019-04-26T09:29:26.252Z,66.20
2019-04-26T09:32:00.725Z,65.70
2019-04-26T09:34:33.539Z,64.70
2019-04-26T09:37:02.394Z,63.70
2019-04-26T09:39:31.179Z,64.40
2019-04-26T09:42:17.069Z,63.60
2019-04-26T09:45:03.983Z,61.80
2019-04-26T09:47:34.485Z,61.70
2019-04-26T09:50:23.277Z,60.80
2019-04-26T09:52:58.260Z,61.00
2019-04-26T09:55:35.158Z,61.40
2019-04-26T09:57:58.184Z,59.90
2019-04-26T10:00:28.762Z,61.20
2019-04-26T10:02:57.552Z,61.40
2019-04-26T10:05:26.440Z,60.10
2019-04-26T10:07:55.231Z,59.00
2019-04-26T10:10:43.549Z,56.50
2019-04-26T10:13:25.853Z,55.50
2019-04-26T10:16:14.712Z,55.10
2019-04-26T10:18:45.166Z,52.30
2019-04-26T10:21:13.954Z,52.00
2019-04-26T10:23:42.743Z,51.60
2019-04-26T10:26:11.636Z,52.00
2019-04-26T10:28:40.425Z,52.40
2019-04-26T10:31:09.211Z,50.90
2019-04-26T10:33:38.004Z,49.60
2019-04-26T10:36:06.797Z,49.10
2019-04-26T10:38:35.574Z,47.60
2019-04-26T10:41:04.470Z,47.70
2019-04-26T10:43:33.257Z,47.10
2019-04-26T10:46:02.146Z,48.30
2019-04-26T10:48:30.837Z,48.70
2019-04-26T10:50:59.619Z,47.30
2019-04-26T10:53:32.763Z,46.40
2019-04-26T10:56:15.422Z,46.40
2019-04-26T10:58:49.021Z,45.90
2019-04-26T11:01:21.909Z,47.10
2019-04-26T11:03:50.694Z,47.50
2019-04-26T11:06:19.745Z,46.80
2019-04-26T11:08:48.548Z,45.50
2019-04-26T11:11:17.367Z,45.80
2019-04-26T11:13:46.233Z,44.50
2019-04-26T11:16:15.044Z,44.50
2019-04-26T11:18:44.037Z,45.70
2019-04-26T11:21:16.462Z,47.90
2019-04-26T11:23:45.412Z,48.70
2019-04-26T11:26:13.680Z,45.70
2019-04-26T11:28:42.466Z,44.90
2019-04-26T11:31:11.254Z,43.70
2019-04-26T11:33:44.969Z,44.30
2019-04-26T11:36:10.630Z,42.30
2019-04-26T11:38:39.599Z,46.20
2019-04-26T11:41:08.486Z,44.90
2019-04-26T11:43:37.455Z,44.40
2019-04-26T11:46:06.239Z,45.60
2019-04-26T11:48:34.888Z,43.40
2019-04-26T11:51:03.813Z,41.10
2019-04-26T11:53:33.546Z,39.90
2019-04-26T11:56:04.559Z,40.30
2019-04-26T11:58:32.809Z,38.20
2019-04-26T12:01:03.267Z,36.00
2019-04-26T12:03:32.055Z,38.80
2019-04-26T12:06:11.128Z,39.10
2019-04-26T12:08:50.900Z,39.40
2019-04-26T12:11:25.870Z,40.30
2019-04-26T12:13:50.250Z,42.70
2019-04-26T12:16:20.430Z,43.30
2019-04-26T12:18:49.462Z,42.40
2019-04-26T12:21:18.152Z,44.10
2019-04-26T12:23:46.938Z,45.10
2019-04-26T12:26:17.257Z,41.40
2019-04-26T12:28:46.231Z,38.00
2019-04-26T12:31:15.322Z,36.60
2019-04-26T12:33:45.181Z,34.60
2019-04-26T12:36:14.446Z,35.40
2019-04-26T12:38:43.354Z,35.20
2019-04-26T12:41:12.244Z,33.90
2019-04-26T12:43:41.412Z,32.40
2019-04-26T12:46:14.109Z,32.20
2019-04-26T12:48:41.370Z,34.90
2019-04-26T12:51:12.085Z,35.20
2019-04-26T12:53:40.838Z,35.00
2019-04-26T12:56:09.580Z,34.00
2019-04-26T12:58:38.345Z,32.70
2019-04-26T13:01:12.264Z,32.80
2019-04-26T13:03:39.295Z,32.90
2019-04-26T13:06:08.106Z,33.40
2019-04-26T13:08:36.899Z,31.40
2019-04-26T13:11:15.121Z,31.50
2019-04-26T13:13:44.900Z,31.20
2019-04-26T13:16:30.787Z,29.00
2019-04-26T13:18:59.673Z,29.20
2019-04-26T13:21:28.695Z,30.20
2019-04-26T13:24:00.285Z,33.10
2019-04-26T13:26:30.266Z,31.50
2019-04-26T13:28:58.860Z,29.90
2019-04-26T13:31:31.710Z,29.90
2019-04-26T13:34:02.400Z,29.70
2019-04-26T13:36:29.170Z,30.10
2019-04-26T13:38:58.205Z,30.90
2019-04-26T13:41:28.038Z,30.50
2019-04-26T13:43:57.150Z,30.10
2019-04-26T13:46:31.729Z,30.80
2019-04-26T13:49:02.164Z,30.30
2019-04-26T13:51:32.565Z,29.90
2019-04-26T13:54:01.380Z,31.20
2019-04-26T13:56:32.021Z,31.30
2019-04-26T13:59:00.689Z,31.00
2019-04-26T14:01:29.478Z,30.00
2019-04-26T14:03:58.460Z,29.80
2019-04-26T14:06:27.365Z,29.20
2019-04-26T14:08:58.262Z,29.70
2019-04-26T14:11:29.326Z,30.40
2019-04-26T14:14:00.201Z,30.00
2019-04-26T14:16:28.047Z,28.70
2019-04-26T14:18:57.042Z,29.20
2019-04-26T14:21:29.201Z,28.70
2019-04-26T14:24:14.148Z,29.30
2019-04-26T14:26:44.597Z,28.90
2019-04-26T14:29:13.388Z,29.60
2019-04-26T14:31:42.275Z,30.00
2019-04-26T14:34:12.148Z,31.40
2019-04-26T14:36:43.634Z,32.30
2019-04-26T14:39:14.886Z,29.70
2019-04-26T14:41:42.373Z,29.00
2019-04-26T14:44:15.844Z,28.20
2019-04-26T14:46:48.668Z,28.10
2019-04-26T14:49:12.272Z,28.00
2019-04-26T14:51:41.276Z,27.60
2019-04-26T14:54:12.605Z,28.80
2019-04-26T14:56:51.695Z,30.90
2019-04-26T14:59:12.227Z,34.90
2019-04-26T15:01:57.741Z,34.00
2019-04-26T15:04:33.889Z,33.40
2019-04-26T15:07:05.477Z,34.60
2019-04-26T15:09:36.373Z,34.20
2019-04-26T15:12:03.709Z,30.90
2019-04-26T15:14:34.398Z,29.50
2019-04-26T15:17:03.264Z,29.20
2019-04-26T15:19:35.006Z,28.40
2019-04-26T15:22:04.102Z,27.20
2019-04-26T15:24:34.986Z,26.20
2019-04-26T15:27:03.642Z,26.30
2019-04-26T15:29:32.794Z,25.50
2019-04-26T15:32:03.162Z,24.30
2019-04-26T15:34:37.702Z,24.10
2019-04-26T15:37:06.577Z,25.30
2019-04-26T15:39:37.003Z,25.40
2019-04-26T15:42:07.507Z,26.30
2019-04-26T15:44:37.959Z,26.60
2019-04-26T15:47:08.491Z,27.80
2019-04-26T15:49:45.060Z,29.50
2019-04-26T15:52:13.747Z,31.60
2019-04-26T15:54:42.639Z,32.90
2019-04-26T15:57:12.353Z,33.90
2019-04-26T15:59:42.907Z,33.80
2019-04-26T16:02:12.413Z,34.30
2019-04-26T16:04:42.445Z,35.60
2019-04-26T16:07:16.675Z,36.30
2019-04-26T16:09:43.764Z,37.10
2019-04-26T16:12:13.442Z,37.50
2019-04-26T16:14:42.462Z,37.70
2019-04-26T16:17:40.248Z,38.10
2019-04-26T16:20:09.554Z,37.90
2019-04-26T16:22:38.423Z,37.60
2019-04-26T16:25:07.903Z,37.30
2019-04-26T16:27:36.731Z,36.40
2019-04-26T16:30:23.072Z,36.50
2019-04-26T16:33:00.001Z,36.70
2019-04-26T16:35:28.993Z,33.70
2019-04-26T16:38:00.170Z,34.70
2019-04-26T16:40:29.240Z,36.00
2019-04-26T16:42:59.765Z,35.30
2019-04-26T16:45:37.313Z,33.00
2019-04-26T16:48:04.508Z,31.90
2019-04-26T16:50:38.175Z,33.20
2019-04-26T16:53:05.357Z,34.40
2019-04-26T16:55:47.943Z,35.30
2019-04-26T16:58:08.424Z,37.20
2019-04-26T17:03:08.311Z,39.30
2019-04-26T17:05:47.658Z,40.00
2019-04-26T17:08:10.432Z,40.60
2019-04-26T17:09:50.980Z,38.60
2019-04-26T17:10:38.338Z,40.80
2019-04-26T17:13:07.125Z,41.00
2019-04-26T17:15:36.197Z,40.80
2019-04-26T17:18:05.317Z,39.60
2019-04-26T17:20:34.115Z,38.50
2019-04-26T17:23:12.388Z,38.00
2019-04-26T17:26:02.091Z,37.30
2019-04-26T17:28:32.553Z,36.00
2019-04-26T17:31:02.124Z,35.20
2019-04-26T17:33:32.544Z,34.20
2019-04-26T17:36:01.628Z,34.40
2019-04-26T17:38:31.229Z,35.30
2019-04-26T17:41:00.656Z,36.70
2019-04-26T17:43:30.575Z,37.20
2019-04-26T17:46:01.059Z,38.10
2019-04-26T17:48:30.533Z,39.00
2019-04-26T17:51:00.189Z,40.00
2019-04-26T17:53:33.251Z,40.60
2019-04-26T17:56:00.542Z,40.70
2019-04-26T17:58:32.442Z,40.40
2019-04-26T18:01:03.537Z,39.80
2019-04-26T18:03:32.542Z,39.40
2019-04-26T18:06:01.523Z,39.40
2019-04-26T18:08:40.638Z,39.30
2019-04-26T18:11:00.938Z,42.80
2019-04-26T18:13:31.946Z,45.20
2019-04-26T18:16:00.368Z,47.30
2019-04-26T18:18:53.516Z,48.60
2019-04-26T18:21:37.489Z,49.60
2019-04-26T18:24:06.248Z,49.80
2019-04-26T18:26:35.689Z,50.10
2019-04-26T18:29:04.852Z,48.90
2019-04-26T18:31:33.881Z,48.90
2019-04-26T18:34:04.170Z,49.30
2019-04-26T18:36:33.386Z,49.60
2019-04-26T18:39:03.860Z,49.60
2019-04-26T18:41:33.967Z,49.80
2019-04-26T18:44:03.340Z,49.70
2019-04-26T18:46:46.923Z,49.80
2019-04-26T18:49:18.205Z,49.90
2019-04-26T18:51:48.433Z,50.30
2019-04-26T18:54:30.747Z,50.50
2019-04-26T18:57:03.064Z,50.50
2019-04-26T18:59:31.600Z,50.60
2019-04-26T19:02:00.470Z,50.70
2019-04-26T19:04:29.387Z,51.00
2019-04-26T19:06:58.170Z,51.20
2019-04-26T19:09:27.164Z,51.30
2019-04-26T19:11:56.359Z,51.50
2019-04-26T19:14:29.761Z,51.60
2019-04-26T19:17:01.880Z,51.70
2019-04-26T19:19:38.402Z,51.80
2019-04-26T19:22:09.448Z,52.20
2019-04-26T19:24:39.350Z,52.50
2019-04-26T19:27:08.137Z,53.10
2019-04-26T19:29:37.215Z,53.90
2019-04-26T19:32:06.724Z,54.90
2019-04-26T19:34:36.815Z,55.70
2019-04-26T19:37:05.747Z,56.80
2019-04-26T19:39:35.844Z,58.40
2019-04-26T19:42:06.227Z,59.40
2019-04-26T19:44:35.388Z,61.20
2019-04-26T19:47:06.863Z,62.30
2019-04-26T19:49:49.763Z,62.90
2019-04-26T19:52:22.324Z,63.90
2019-04-26T19:54:55.227Z,64.20
2019-04-26T19:57:28.651Z,65.10
2019-04-26T19:59:57.607Z,65.20
2019-04-26T20:02:32.468Z,65.50
2019-04-26T20:04:56.825Z,65.90
2019-04-26T20:07:28.318Z,65.80
2019-04-26T20:09:56.440Z,65.90
2019-04-26T20:12:29.544Z,65.80
2019-04-26T20:14:58.560Z,66.10
2019-04-26T20:17:27.523Z,66.50
2019-04-26T20:19:56.416Z,65.80
2019-04-26T20:22:28.289Z,65.90
2019-04-26T20:24:57.489Z,66.00
2019-04-26T20:27:27.854Z,66.10
2019-04-26T20:29:56.585Z,65.60
2019-04-26T20:32:27.116Z,66.30
2019-04-26T20:35:00.617Z,66.10
2019-04-26T20:37:29.686Z,65.70
2019-04-26T20:40:16.217Z,65.60
2019-04-26T20:42:29.034Z,65.50
2019-04-26T20:44:57.892Z,65.80
2019-04-26T20:47:26.675Z,65.90
2019-04-26T20:50:01.238Z,65.80
2019-04-26T20:52:26.125Z,65.80
2019-04-26T20:54:55.018Z,66.30
2019-04-26T20:57:26.540Z,65.50
2019-04-26T21:00:01.652Z,65.60
2019-04-26T21:02:24.924Z,65.80
2019-04-26T21:04:53.852Z,66.00
2019-04-26T21:07:23.077Z,66.00
2019-04-26T21:09:52.144Z,66.50
2019-04-26T21:12:21.137Z,66.70
2019-04-26T21:14:51.726Z,66.60
2019-04-26T21:17:24.381Z,66.60
2019-04-26T21:19:54.987Z,66.90
2019-04-26T21:22:28.382Z,66.80
2019-04-26T21:24:58.386Z,66.50
2019-04-26T21:27:29.767Z,66.20
2019-04-26T21:30:03.438Z,66.20
2019-04-26T21:32:51.447Z,66.50
2019-04-26T21:35:25.989Z,67.10
2019-04-26T21:37:56.471Z,68.70
2019-04-26T21:40:29.729Z,69.60
2019-04-26T21:42:59.481Z,70.40
2019-04-26T21:45:31.053Z,71.20
2019-04-26T21:48:02.495Z,71.30
2019-04-26T21:50:35.759Z,71.30
2019-04-26T21:53:05.040Z,71.40
2019-04-26T21:55:35.234Z,71.90
2019-04-26T21:58:02.733Z,72.20
2019-04-26T22:00:33.439Z,72.30
2019-04-26T22:03:03.782Z,72.50
2019-04-26T22:05:35.120Z,72.60
2019-04-26T22:08:03.778Z,73.40
2019-04-26T22:10:43.725Z,73.90
2019-04-26T22:13:13.846Z,73.70
2019-04-26T22:15:50.545Z,74.00
2019-04-26T22:18:21.615Z,73.80
2019-04-26T22:20:53.989Z,73.80
2019-04-26T22:23:25.398Z,74.00
2019-04-26T22:26:00.284Z,74.40
2019-04-26T22:28:30.893Z,74.40
2019-04-26T22:30:59.366Z,74.10
2019-04-26T22:33:30.813Z,73.60
2019-04-26T22:35:58.769Z,73.20
2019-04-26T22:38:27.558Z,73.00
2019-04-26T22:40:56.448Z,73.00
2019-04-26T22:43:29.714Z,72.90
2019-04-26T22:46:13.770Z,72.60
2019-04-26T22:48:44.289Z,73.20
2019-04-26T22:51:14.036Z,73.00
2019-04-26T22:53:43.355Z,73.30
2019-04-26T22:56:13.381Z,73.60
2019-04-26T22:58:44.007Z,73.80
2019-04-26T23:01:12.940Z,74.40
2019-04-26T23:03:46.320Z,74.30
2019-04-26T23:06:13.583Z,74.50
2019-04-26T23:08:43.816Z,74.80
2019-04-26T23:11:13.430Z,75.40
2019-04-26T23:13:49.917Z,75.80
2019-04-26T23:16:40.355Z,76.10
2019-04-26T23:19:19.177Z,76.50
2019-04-26T23:22:00.435Z,76.70
2019-04-26T23:24:29.302Z,76.70
2019-04-26T23:26:58.062Z,76.70
2019-04-26T23:29:27.292Z,76.80
2019-04-26T23:31:56.284Z,76.90
2019-04-26T23:34:25.284Z,77.20
2019-04-26T23:36:54.345Z,77.10
2019-04-26T23:39:24.611Z,76.90
2019-04-26T23:41:53.971Z,77.30
2019-04-26T23:44:50.235Z,77.90
2019-04-26T23:47:22.989Z,77.60
2019-04-26T23:49:53.278Z,77.70
2019-04-26T23:52:19.968Z,77.90
